Terminal Aerodrome Forecast
Issued by NWS Tuscon, AZ

Home | Current Version | Previous Version | Text Only | Print | Product List | Glossary On
Versions: 1 2 3 4 5 6 7 8 9 10 11 12 13 14
000
FTUS45 KTWC 300520
TAFDUG
TAF
KDUG 300520Z 3006/3106 22006KT P6SM FEW150
     FM300700 12005KT P6SM SKC
     FM301700 20012G18KT P6SM FEW150
     FM302000 22018G26KT P6SM SCT150
     FM310300 25008KT P6SM SKC=

USA.gov is the U.S. government's official web portal to all federal, state and local government web resources and services.